Time;durP1;ratioP1;P1;durP2;ratioP2;P2;SDS_P1;SDS_P2;PMS_P1;PMS_P2;Temp;Humidity;BMP_temperature;BMP_pressure;BME280_temperature;BME280_humidity;BME280_pressure;Samples;Min_cycle;Max_cycle;Signal;HPM_P1;HPM_P2
2023/03/11 00:00:18;;;;;;;7.60;4.57;;;1.00;99.90;;;;;;5089885;28;20527;-69
2023/03/11 00:02:46;;;;;;;5.77;3.70;;;1.10;99.90;;;;;;5085587;28;20496;-70
2023/03/11 00:05:16;;;;;;;8.40;3.90;;;1.10;99.90;;;;;;5094556;28;20466;-70
2023/03/11 00:07:43;;;;;;;4.10;3.70;;;1.10;99.90;;;;;;5094435;28;20854;-69
2023/03/11 00:10:16;;;;;;;4.20;3.90;;;1.10;99.90;;;;;;5093580;28;20464;-69
2023/03/11 00:12:43;;;;;;;13.83;4.27;;;1.10;99.90;;;;;;5100049;28;20490;-69
2023/03/11 00:15:11;;;;;;;10.60;4.00;;;1.10;99.90;;;;;;5096787;28;20468;-69
2023/03/11 00:17:38;;;;;;;6.13;4.43;;;1.10;99.90;;;;;;5095589;28;20483;-70
2023/03/11 00:20:06;;;;;;;11.40;4.43;;;1.10;99.90;;;;;;5093103;28;20831;-70
2023/03/11 00:22:33;;;;;;;4.47;4.07;;;1.10;99.90;;;;;;5096040;28;20980;-69
2023/03/11 00:25:00;;;;;;;6.73;3.40;;;1.10;99.90;;;;;;5096415;28;20474;-70
2023/03/11 00:27:28;;;;;;;10.13;3.37;;;1.10;99.90;;;;;;5090527;28;20960;-69
2023/03/11 00:29:55;;;;;;;5.80;3.90;;;1.10;99.90;;;;;;5096137;28;20477;-70
2023/03/11 00:32:23;;;;;;;14.53;4.43;;;1.10;99.90;;;;;;5093738;28;20508;-69
2023/03/11 00:34:50;;;;;;;17.03;4.73;;;1.10;99.90;;;;;;5096375;28;21050;-70
2023/03/11 00:37:17;;;;;;;3.80;3.40;;;1.10;99.90;;;;;;5092302;28;21062;-70
2023/03/11 00:39:44;;;;;;;16.30;4.37;;;1.10;99.90;;;;;;5092828;28;20899;-69
2023/03/11 00:42:11;;;;;;;15.43;3.97;;;1.10;99.90;;;;;;5097593;28;20481;-69
2023/03/11 00:44:39;;;;;;;6.53;3.50;;;1.10;99.90;;;;;;5094590;28;20461;-70
2023/03/11 00:47:06;;;;;;;9.63;4.30;;;1.10;99.90;;;;;;5093180;28;20454;-69
2023/03/11 00:49:33;;;;;;;7.40;3.80;;;1.10;99.90;;;;;;5094436;28;20469;-69
2023/03/11 00:52:00;;;;;;;5.30;3.53;;;1.10;99.90;;;;;;5092383;28;20842;-70
2023/03/11 00:54:28;;;;;;;4.90;4.40;;;1.10;99.90;;;;;;5094078;28;20477;-70
2023/03/11 00:56:54;;;;;;;12.43;4.53;;;1.10;99.90;;;;;;5095744;28;20895;-69
2023/03/11 00:59:21;;;;;;;8.87;5.10;;;1.10;99.90;;;;;;5092876;28;20847;-68
2023/03/11 01:01:50;;;;;;;14.73;4.70;;;1.10;99.90;;;;;;5096383;28;20769;-70
2023/03/11 01:04:17;;;;;;;6.20;4.10;;;1.20;99.90;;;;;;5088804;28;20485;-69
2023/03/11 01:06:44;;;;;;;11.33;4.87;;;1.20;99.90;;;;;;5095144;28;20496;-69
2023/03/11 01:09:11;;;;;;;8.03;4.30;;;1.20;99.90;;;;;;5097419;28;20473;-70
2023/03/11 01:11:37;;;;;;;11.23;4.20;;;1.20;99.90;;;;;;5098565;28;20515;-69
2023/03/11 01:14:04;;;;;;;7.20;3.70;;;1.20;99.90;;;;;;5094437;28;20880;-71
2023/03/11 01:16:31;;;;;;;9.70;4.47;;;1.20;99.90;;;;;;5092190;28;20458;-70
2023/03/11 01:18:59;;;;;;;4.77;3.67;;;1.10;99.90;;;;;;5095710;28;20933;-69
2023/03/11 01:21:26;;;;;;;7.23;4.63;;;1.10;99.90;;;;;;5095979;28;20484;-70
2023/03/11 01:23:53;;;;;;;8.10;3.60;;;1.00;99.90;;;;;;5098027;28;20846;-71
2023/03/11 01:26:20;;;;;;;6.80;3.77;;;1.00;99.90;;;;;;5090733;28;20968;-69
2023/03/11 01:28:47;;;;;;;10.63;4.70;;;0.80;99.90;;;;;;5092342;28;20461;-70
2023/03/11 01:31:14;;;;;;;9.43;4.50;;;0.70;99.90;;;;;;5096319;28;20537;-68
2023/03/11 01:33:40;;;;;;;8.23;4.10;;;0.60;99.90;;;;;;5090900;28;20574;-70
2023/03/11 01:36:09;;;;;;;14.57;4.67;;;0.60;99.90;;;;;;5090430;28;21000;-69
2023/03/11 01:38:36;;;;;;;11.40;4.67;;;0.50;99.90;;;;;;5089464;28;20816;-70
2023/03/11 01:41:03;;;;;;;12.57;4.40;;;0.50;99.90;;;;;;5087079;28;20470;-70
2023/03/11 01:43:53;;;;;;;13.30;4.53;;;0.50;99.90;;;;;;5101693;28;20480;-70
2023/03/11 01:46:21;;;;;;;11.20;4.80;;;0.50;99.90;;;;;;5093459;28;20453;-70
2023/03/11 01:48:50;;;;;;;9.17;4.60;;;0.50;99.90;;;;;;5094170;28;20886;-70
2023/03/11 01:51:24;;;;;;;7.73;4.40;;;0.50;99.90;;;;;;5096003;28;20958;-70
2023/03/11 01:53:52;;;;;;;5.20;4.10;;;0.50;99.90;;;;;;5093058;28;21051;-70
2023/03/11 01:56:19;;;;;;;11.57;4.37;;;0.40;99.90;;;;;;5094271;28;20460;-71
2023/03/11 01:58:51;;;;;;;6.27;4.53;;;0.40;99.90;;;;;;5103823;28;20502;-70
2023/03/11 02:01:20;;;;;;;13.00;5.07;;;0.40;99.90;;;;;;5087942;28;20519;-71
2023/03/11 02:03:48;;;;;;;4.70;4.27;;;0.30;99.90;;;;;;5088097;28;20581;-71
2023/03/11 02:06:17;;;;;;;6.63;4.47;;;0.20;99.90;;;;;;5087804;28;20472;-71
2023/03/11 02:08:46;;;;;;;11.07;4.93;;;0.20;99.90;;;;;;5086953;28;20469;-71
2023/03/11 02:11:17;;;;;;;5.13;3.87;;;0.10;99.90;;;;;;5098147;28;20967;-70
2023/03/11 02:13:46;;;;;;;8.53;4.73;;;0.10;99.90;;;;;;5092437;28;20592;-70
2023/03/11 02:16:14;;;;;;;15.83;5.73;;;0.00;99.90;;;;;;5089700;28;20468;-70
2023/03/11 02:18:42;;;;;;;11.50;4.83;;;0.10;99.90;;;;;;5092675;28;20458;-71
2023/03/11 02:21:21;;;;;;;6.77;5.07;;;0.10;99.90;;;;;;5088389;28;20518;-71
2023/03/11 02:23:55;;;;;;;6.43;5.80;;;0.10;99.90;;;;;;5086989;28;20462;-71
2023/03/11 02:26:25;;;;;;;5.23;4.80;;;0.10;99.90;;;;;;5088975;28;20997;-71
2023/03/11 02:28:54;;;;;;;12.30;5.30;;;0.10;99.90;;;;;;5100705;28;20453;-71
2023/03/11 02:31:22;;;;;;;11.37;5.30;;;0.10;99.90;;;;;;5096322;28;20460;-70
2023/03/11 02:33:53;;;;;;;7.40;4.77;;;0.00;99.90;;;;;;5086349;28;20496;-70
2023/03/11 02:36:33;;;;;;;16.83;4.93;;;0.00;99.90;;;;;;5092511;28;20554;-69
2023/03/11 02:39:00;;;;;;;5.30;4.83;;;0.00;99.90;;;;;;5083940;28;20496;-71
2023/03/11 02:41:28;;;;;;;11.60;5.13;;;-0.10;99.90;;;;;;5100374;28;20964;-70
2023/03/11 02:43:57;;;;;;;5.40;4.90;;;-0.10;99.90;;;;;;5100608;28;20471;-71
2023/03/11 02:46:24;;;;;;;13.43;5.20;;;-0.10;99.90;;;;;;5094120;28;20477;-71
2023/03/11 02:48:52;;;;;;;15.50;5.50;;;-0.10;99.90;;;;;;5092745;28;20507;-70
2023/03/11 02:51:18;;;;;;;12.30;6.10;;;-0.10;99.90;;;;;;5094354;28;20931;-69
2023/03/11 02:53:49;;;;;;;8.90;5.87;;;0.00;99.90;;;;;;5087030;28;20492;-70
2023/03/11 02:56:16;;;;;;;7.07;5.20;;;-0.10;99.90;;;;;;5088445;28;20854;-70
2023/03/11 02:58:43;;;;;;;7.80;5.10;;;-0.20;99.90;;;;;;5090822;28;20992;-70
2023/03/11 03:01:11;;;;;;;7.63;5.80;;;-0.20;99.90;;;;;;5092667;28;20461;-70
2023/03/11 03:03:38;;;;;;;6.80;5.60;;;-0.20;99.90;;;;;;5098257;28;20492;-70
2023/03/11 03:06:06;;;;;;;5.47;4.97;;;-0.20;99.90;;;;;;5090820;28;20536;-70
2023/03/11 03:08:33;;;;;;;15.93;6.07;;;-0.20;99.90;;;;;;5095717;28;20465;-70
2023/03/11 03:11:02;;;;;;;10.27;5.70;;;-0.20;99.90;;;;;;5089032;28;20458;-71
2023/03/11 03:13:29;;;;;;;7.10;6.37;;;-0.20;99.90;;;;;;5089999;28;20493;-70
2023/03/11 03:15:56;;;;;;;6.47;5.80;;;-0.20;99.90;;;;;;5090167;28;20481;-71
2023/03/11 03:18:25;;;;;;;7.73;6.17;;;-0.20;99.90;;;;;;5091393;28;20505;-69
2023/03/11 03:20:52;;;;;;;8.70;5.70;;;-0.20;99.90;;;;;;5095719;28;20558;-70
2023/03/11 03:23:21;;;;;;;9.73;5.97;;;-0.20;99.90;;;;;;5092342;28;20501;-70
2023/03/11 03:25:48;;;;;;;6.20;5.60;;;-0.20;99.90;;;;;;5089780;28;20464;-71
2023/03/11 03:28:14;;;;;;;14.73;6.33;;;-0.20;99.90;;;;;;5089145;28;20464;-71
2023/03/11 03:30:42;;;;;;;8.83;6.53;;;-0.20;99.90;;;;;;5086551;28;20462;-70
2023/03/11 03:33:09;;;;;;;6.20;5.40;;;-0.30;99.90;;;;;;5090589;28;20493;-71
2023/03/11 03:35:41;;;;;;;7.97;5.90;;;-0.40;99.90;;;;;;5093544;28;20776;-69
2023/03/11 03:38:08;;;;;;;11.97;6.70;;;-0.40;99.90;;;;;;5088389;28;20507;-70
2023/03/11 03:40:36;;;;;;;9.83;6.60;;;-0.50;99.90;;;;;;5099055;28;20464;-70
2023/03/11 03:43:03;;;;;;;10.30;7.17;;;-0.40;99.90;;;;;;5088152;28;20508;-70
2023/03/11 03:45:31;;;;;;;8.70;6.10;;;-0.50;99.90;;;;;;5094404;28;20830;-70
2023/03/11 03:47:58;;;;;;;8.70;6.43;;;-0.50;99.90;;;;;;5093690;28;20497;-71
2023/03/11 03:50:25;;;;;;;10.23;6.67;;;-0.50;99.90;;;;;;5098739;28;20462;-71
2023/03/11 03:52:54;;;;;;;9.83;6.50;;;-0.50;99.90;;;;;;5093067;28;20496;-72
2023/03/11 03:55:22;;;;;;;11.80;6.90;;;-0.60;99.90;;;;;;5085900;28;20462;-70
2023/03/11 03:57:50;;;;;;;9.00;6.77;;;-0.60;99.90;;;;;;5086525;28;20895;-70
2023/03/11 04:00:17;;;;;;;14.13;7.97;;;-0.50;99.90;;;;;;5082849;28;20471;-71
2023/03/11 04:02:45;;;;;;;18.70;7.93;;;-0.50;99.90;;;;;;5092668;28;20474;-69
2023/03/11 04:05:12;;;;;;;16.00;8.23;;;-0.50;99.90;;;;;;5090743;28;20461;-72
2023/03/11 04:07:39;;;;;;;11.83;7.13;;;-0.60;99.90;;;;;;5087284;28;20465;-71
2023/03/11 04:10:08;;;;;;;8.43;7.37;;;-0.60;99.90;;;;;;5095168;28;20511;-70
2023/03/11 04:12:35;;;;;;;13.67;6.63;;;-0.60;99.90;;;;;;5096479;28;20464;-71
2023/03/11 04:15:03;;;;;;;7.97;7.07;;;-0.60;99.90;;;;;;5092483;28;20515;-71
2023/03/11 04:17:30;;;;;;;7.77;7.00;;;-0.70;99.90;;;;;;5090608;28;20466;-72
2023/03/11 04:19:56;;;;;;;8.57;7.10;;;-0.70;99.90;;;;;;5086258;28;21063;-72
2023/03/11 04:22:23;;;;;;;8.97;7.33;;;-0.70;99.90;;;;;;5093141;28;20468;-72
2023/03/11 04:24:50;;;;;;;13.40;7.07;;;-0.80;99.90;;;;;;5088361;28;20469;-71
2023/03/11 04:27:18;;;;;;;6.77;6.30;;;-0.80;99.90;;;;;;5087014;28;20846;-72
2023/03/11 04:29:44;;;;;;;8.40;7.70;;;-0.80;99.90;;;;;;5086319;28;20529;-71
2023/03/11 04:32:11;;;;;;;10.87;7.37;;;-0.80;99.90;;;;;;5088391;28;20469;-72
2023/03/11 04:34:38;;;;;;;8.03;7.33;;;-0.80;99.90;;;;;;5087418;28;20542;-72
2023/03/11 04:37:05;;;;;;;8.10;6.90;;;-0.80;99.90;;;;;;5101653;28;20465;-72
2023/03/11 04:39:32;;;;;;;7.80;7.10;;;-0.80;99.90;;;;;;5084701;28;20460;-72
2023/03/11 04:41:59;;;;;;;10.13;7.63;;;-0.80;99.90;;;;;;5089611;28;20480;-71
2023/03/11 04:44:27;;;;;;;9.83;7.30;;;-0.80;99.90;;;;;;5088708;28;20518;-72
2023/03/11 04:46:54;;;;;;;17.23;7.60;;;-0.90;99.90;;;;;;5086346;28;20795;-71
2023/03/11 04:49:21;;;;;;;10.60;8.10;;;-0.80;99.90;;;;;;5088966;28;20495;-72
2023/03/11 04:51:48;;;;;;;7.87;7.10;;;-0.70;99.90;;;;;;5087033;28;20457;-73
2023/03/11 04:54:15;;;;;;;10.83;7.13;;;-0.70;99.90;;;;;;5090692;28;20493;-72
2023/03/11 04:56:42;;;;;;;16.83;7.87;;;-0.70;99.90;;;;;;5088217;28;20556;-73
2023/03/11 04:59:08;;;;;;;11.17;7.00;;;-0.70;99.90;;;;;;5092694;28;20473;-71
2023/03/11 05:01:38;;;;;;;8.07;7.37;;;-0.60;99.90;;;;;;5087728;28;20465;-73
2023/03/11 05:04:05;;;;;;;18.93;7.40;;;-0.50;99.90;;;;;;5096095;28;20551;-71
2023/03/11 05:06:32;;;;;;;13.63;8.07;;;-0.40;99.90;;;;;;5094049;28;20472;-71
2023/03/11 05:08:59;;;;;;;8.60;7.23;;;-0.40;99.90;;;;;;5092813;28;20494;-71
2023/03/11 05:11:25;;;;;;;10.70;7.40;;;-0.30;99.90;;;;;;5089205;28;20471;-71
2023/03/11 05:13:53;;;;;;;9.80;7.53;;;-0.30;99.90;;;;;;5089230;28;20677;-73
2023/03/11 05:16:20;;;;;;;16.07;7.97;;;-0.30;99.90;;;;;;5099374;28;20461;-70
2023/03/11 05:18:48;;;;;;;25.03;7.47;;;-0.20;99.90;;;;;;5096622;28;20472;-71
2023/03/11 05:21:15;;;;;;;9.07;6.70;;;-0.10;99.90;;;;;;5096832;28;20603;-72
2023/03/11 05:23:43;;;;;;;9.83;8.20;;;-0.10;99.90;;;;;;5094790;28;20800;-71
2023/03/11 05:26:10;;;;;;;12.10;8.10;;;-0.10;99.90;;;;;;5098517;28;20465;-71
2023/03/11 05:28:37;;;;;;;26.00;7.93;;;-0.10;99.90;;;;;;5095164;28;20467;-72
2023/03/11 05:31:08;;;;;;;9.17;7.17;;;-0.10;99.90;;;;;;5096712;28;20465;-71
2023/03/11 05:33:34;;;;;;;12.27;8.03;;;0.00;99.90;;;;;;5093673;28;20478;-73
2023/03/11 05:36:08;;;;;;;22.33;7.40;;;0.00;99.90;;;;;;5094160;28;20471;-72
2023/03/11 05:38:35;;;;;;;10.30;7.80;;;-0.10;99.90;;;;;;5092328;28;20477;-71
2023/03/11 05:41:02;;;;;;;11.70;8.03;;;0.00;99.90;;;;;;5092688;28;20457;-73
2023/03/11 05:43:29;;;;;;;23.67;7.83;;;-0.10;99.90;;;;;;5089690;28;20500;-72
2023/03/11 05:45:55;;;;;;;8.63;7.80;;;-0.10;99.90;;;;;;5091316;28;20485;-72
2023/03/11 05:48:22;;;;;;;8.97;8.10;;;-0.10;99.90;;;;;;5090451;28;20468;-72
2023/03/11 05:50:49;;;;;;;16.37;7.73;;;-0.10;99.90;;;;;;5091527;28;20471;-71
2023/03/11 05:53:17;;;;;;;12.90;8.00;;;-0.10;99.90;;;;;;5097210;28;20970;-72
2023/03/11 05:55:44;;;;;;;16.93;8.03;;;0.00;99.90;;;;;;5095587;28;20461;-71
2023/03/11 05:58:11;;;;;;;14.57;9.60;;;-0.10;99.90;;;;;;5094972;28;20475;-73
2023/03/11 06:00:38;;;;;;;15.00;8.63;;;-0.10;99.90;;;;;;5088507;28;20493;-72
2023/03/11 06:03:05;;;;;;;9.40;8.50;;;-0.10;99.90;;;;;;5094956;28;20561;-71
2023/03/11 06:05:32;;;;;;;9.33;8.40;;;-0.10;99.90;;;;;;5099415;28;20464;-73
2023/03/11 06:07:59;;;;;;;10.53;8.00;;;-0.30;99.90;;;;;;5094443;28;20542;-72
2023/03/11 06:10:28;;;;;;;11.40;9.53;;;-0.30;99.90;;;;;;5088572;28;20959;-71
2023/03/11 06:12:55;;;;;;;10.83;9.33;;;-0.40;99.90;;;;;;5089392;28;20916;-72
2023/03/11 06:15:21;;;;;;;12.50;9.63;;;-0.50;99.90;;;;;;5093444;28;20499;-72
2023/03/11 06:17:48;;;;;;;10.33;8.90;;;-0.50;99.90;;;;;;5094458;28;20499;-72
2023/03/11 06:20:15;;;;;;;10.33;8.60;;;-0.50;99.90;;;;;;5101710;28;20530;-73
2023/03/11 06:22:43;;;;;;;11.40;9.03;;;-0.60;99.90;;;;;;5090464;28;20814;-72
2023/03/11 06:25:11;;;;;;;15.73;9.03;;;-0.60;99.90;;;;;;5088396;28;20461;-72
2023/03/11 06:27:40;;;;;;;10.43;9.40;;;-0.70;99.90;;;;;;5091528;28;20524;-71
2023/03/11 06:30:09;;;;;;;11.40;9.07;;;-0.70;99.90;;;;;;5092444;28;20464;-71
2023/03/11 06:32:36;;;;;;;11.23;10.23;;;-0.70;99.90;;;;;;5088915;28;20505;-72
2023/03/11 06:35:03;;;;;;;11.47;9.30;;;-0.70;99.90;;;;;;5092139;28;20505;-71
2023/03/11 06:37:30;;;;;;;14.80;9.40;;;-0.70;99.90;;;;;;5087067;28;20477;-73
2023/03/11 06:39:56;;;;;;;13.87;9.50;;;-0.70;99.90;;;;;;5086737;28;20866;-71
2023/03/11 06:42:23;;;;;;;16.80;10.50;;;-0.80;99.90;;;;;;5088768;28;20489;-71
2023/03/11 06:44:52;;;;;;;11.53;9.93;;;-0.80;99.90;;;;;;5097166;28;20512;-71
2023/03/11 06:47:18;;;;;;;13.17;9.60;;;-0.80;99.90;;;;;;5095960;28;20453;-72
2023/03/11 06:49:45;;;;;;;15.00;9.43;;;-0.80;99.90;;;;;;5096614;28;20896;-70
2023/03/11 06:52:12;;;;;;;11.40;9.40;;;-0.80;99.90;;;;;;5093659;28;20855;-70
2023/03/11 06:54:39;;;;;;;12.13;9.07;;;-0.80;99.90;;;;;;5091339;28;20484;-71
2023/03/11 06:57:07;;;;;;;12.53;9.97;;;-0.80;99.90;;;;;;5088761;28;20528;-73
2023/03/11 06:59:34;;;;;;;18.23;9.10;;;-0.80;99.90;;;;;;5085350;28;20461;-72
2023/03/11 07:02:02;;;;;;;13.13;8.70;;;-0.80;99.90;;;;;;5090258;28;20547;-71
2023/03/11 07:04:29;;;;;;;17.50;9.17;;;-0.70;99.90;;;;;;5098177;28;21178;-72
2023/03/11 07:06:56;;;;;;;12.63;9.30;;;-0.70;99.90;;;;;;5094975;28;20964;-73
2023/03/11 07:09:24;;;;;;;15.40;9.20;;;-0.70;99.90;;;;;;5095978;28;20456;-71
2023/03/11 07:11:51;;;;;;;9.53;8.63;;;-0.70;99.90;;;;;;5091615;28;20551;-71
2023/03/11 07:14:19;;;;;;;12.30;9.40;;;-0.70;99.90;;;;;;5094162;28;20538;-71
2023/03/11 07:16:46;;;;;;;14.37;9.10;;;-0.60;99.90;;;;;;5088910;28;20478;-72
2023/03/11 07:19:15;;;;;;;14.27;9.37;;;-0.50;99.90;;;;;;5097342;28;20457;-71
2023/03/11 07:21:42;;;;;;;15.73;9.53;;;-0.50;99.90;;;;;;5092638;28;20876;-71
2023/03/11 07:24:13;;;;;;;14.33;10.83;;;-0.40;99.90;;;;;;5092574;28;20470;-73
2023/03/11 07:26:41;;;;;;;9.77;8.83;;;-0.40;99.90;;;;;;5089247;28;20530;-73
2023/03/11 07:29:08;;;;;;;11.73;9.77;;;-0.40;99.90;;;;;;5091550;28;20473;-70
2023/03/11 07:31:36;;;;;;;21.57;9.70;;;-0.30;99.90;;;;;;5090018;28;20956;-71
2023/03/11 07:34:09;;;;;;;15.13;10.87;;;-0.20;99.90;;;;;;5092344;28;20872;-72
2023/03/11 07:36:40;;;;;;;15.60;9.47;;;-0.10;99.90;;;;;;5089108;28;20469;-73
2023/03/11 07:39:07;;;;;;;15.00;10.57;;;-0.10;99.90;;;;;;5093431;28;20991;-71
2023/03/11 07:41:35;;;;;;;15.57;9.93;;;0.00;99.90;;;;;;5090303;28;20488;-74
2023/03/11 07:44:03;;;;;;;23.73;9.50;;;0.10;99.90;;;;;;5094744;28;20505;-72
2023/03/11 07:46:31;;;;;;;14.00;10.03;;;0.10;99.90;;;;;;5093412;28;20466;-73
2023/03/11 07:48:59;;;;;;;12.20;9.50;;;0.20;99.90;;;;;;5094979;28;20483;-71
2023/03/11 07:51:27;;;;;;;33.00;10.80;;;0.20;99.90;;;;;;5093557;28;20871;-72
2023/03/11 07:53:57;;;;;;;15.37;10.17;;;0.30;99.90;;;;;;5088194;28;20459;-71
2023/03/11 07:56:25;;;;;;;8.60;7.50;;;0.40;99.90;;;;;;5088459;28;20801;-70
2023/03/11 07:58:53;;;;;;;12.23;9.90;;;0.40;99.90;;;;;;5089486;28;20472;-72
2023/03/11 08:01:22;;;;;;;14.97;9.67;;;0.40;99.90;;;;;;5093493;28;20553;-72
2023/03/11 08:03:55;;;;;;;10.93;9.80;;;0.50;99.90;;;;;;5088226;28;20464;-72
2023/03/11 08:06:25;;;;;;;21.03;9.40;;;0.60;99.90;;;;;;5096473;28;20568;-72
2023/03/11 08:08:52;;;;;;;13.00;9.87;;;0.60;99.90;;;;;;5090543;28;20472;-71
2023/03/11 08:11:21;;;;;;;47.77;12.80;;;0.70;99.90;;;;;;5094479;28;20450;-72
2023/03/11 08:13:48;;;;;;;11.70;10.47;;;0.70;99.90;;;;;;5089652;28;20502;-72
2023/03/11 08:16:16;;;;;;;19.40;11.00;;;0.80;99.90;;;;;;5086727;28;20466;-72
2023/03/11 08:18:43;;;;;;;18.17;11.40;;;0.80;99.90;;;;;;5095542;28;20473;-71
2023/03/11 08:21:13;;;;;;;14.40;10.13;;;0.90;99.90;;;;;;5094191;28;20480;-74
2023/03/11 08:23:40;;;;;;;11.90;10.67;;;0.90;99.90;;;;;;5090251;28;20837;-72
2023/03/11 08:26:08;;;;;;;27.73;11.33;;;1.00;99.90;;;;;;5086122;28;20469;-72
2023/03/11 08:28:37;;;;;;;16.67;12.43;;;1.10;99.90;;;;;;5087133;28;20899;-73
2023/03/11 08:31:12;;;;;;;19.10;11.47;;;1.20;99.90;;;;;;5089030;28;20457;-72
2023/03/11 08:33:39;;;;;;;14.40;10.93;;;1.30;99.90;;;;;;5093930;28;20463;-71
2023/03/11 08:36:06;;;;;;;18.77;12.17;;;1.20;99.90;;;;;;5097363;28;20984;-74
2023/03/11 08:38:34;;;;;;;12.53;11.23;;;1.40;99.90;;;;;;5091932;28;20453;-73
2023/03/11 08:41:00;;;;;;;13.20;12.00;;;1.40;99.90;;;;;;5090392;28;20648;-73
2023/03/11 08:43:28;;;;;;;17.17;10.67;;;1.50;99.90;;;;;;5093206;28;20496;-73
2023/03/11 08:45:56;;;;;;;25.10;11.73;;;1.50;99.90;;;;;;5089589;28;20465;-72
2023/03/11 08:48:24;;;;;;;23.13;12.20;;;1.50;99.90;;;;;;5097930;28;20453;-72
2023/03/11 08:50:51;;;;;;;20.97;12.40;;;1.60;99.90;;;;;;5093312;28;20469;-73
2023/03/11 08:53:18;;;;;;;13.80;11.80;;;1.60;99.90;;;;;;5090974;28;20462;-74
2023/03/11 08:55:45;;;;;;;14.90;11.27;;;1.70;99.90;;;;;;5091472;28;20492;-72
2023/03/11 08:58:12;;;;;;;13.20;12.10;;;1.80;99.90;;;;;;5093553;28;21278;-74
2023/03/11 09:00:39;;;;;;;12.50;11.20;;;1.80;99.90;;;;;;5095450;28;20808;-72
2023/03/11 09:03:07;;;;;;;13.00;11.60;;;1.80;99.90;;;;;;5096064;28;20461;-72
2023/03/11 09:05:34;;;;;;;18.23;13.23;;;1.90;99.90;;;;;;5090574;28;20465;-72
2023/03/11 09:08:03;;;;;;;15.93;13.17;;;2.00;99.90;;;;;;5097329;28;20546;-72
2023/03/11 09:10:30;;;;;;;15.53;12.67;;;2.00;99.90;;;;;;5094226;28;20470;-72
2023/03/11 09:12:57;;;;;;;13.73;12.53;;;2.20;99.90;;;;;;5094664;28;20466;-72
2023/03/11 09:15:24;;;;;;;14.60;13.40;;;2.20;99.90;;;;;;5086197;28;20486;-72
2023/03/11 09:17:51;;;;;;;18.80;14.40;;;2.30;99.90;;;;;;5091607;28;20461;-74
2023/03/11 09:20:20;;;;;;;14.20;13.00;;;2.40;99.90;;;;;;5094307;28;20472;-72
2023/03/11 09:22:46;;;;;;;18.93;13.80;;;2.50;99.90;;;;;;5092307;28;20476;-71
2023/03/11 09:25:14;;;;;;;14.97;13.80;;;2.50;99.90;;;;;;5094366;28;21094;-73
2023/03/11 09:27:41;;;;;;;15.93;14.67;;;2.50;99.90;;;;;;5089823;28;20474;-72
2023/03/11 09:30:09;;;;;;;16.20;14.57;;;2.60;99.90;;;;;;5097065;28;20487;-73
2023/03/11 09:32:36;;;;;;;15.93;14.53;;;2.70;99.90;;;;;;5091009;28;20500;-73
2023/03/11 09:35:03;;;;;;;14.80;13.77;;;2.80;99.90;;;;;;5084983;28;20485;-71
2023/03/11 09:37:31;;;;;;;17.03;15.50;;;2.80;99.90;;;;;;5091210;28;20465;-72
2023/03/11 09:39:57;;;;;;;16.07;15.00;;;2.90;99.90;;;;;;5086300;28;20958;-73
2023/03/11 09:42:33;;;;;;;17.30;15.80;;;2.90;99.90;;;;;;5082948;28;20493;-74
2023/03/11 09:45:04;;;;;;;16.80;15.20;;;3.20;99.90;;;;;;5088446;28;20465;-73
2023/03/11 09:47:40;;;;;;;16.73;15.07;;;3.30;99.90;;;;;;5089252;28;20501;-73
2023/03/11 09:50:17;;;;;;;15.10;14.10;;;3.30;99.90;;;;;;5086000;28;20458;-71
2023/03/11 09:52:51;;;;;;;14.60;13.80;;;3.30;99.90;;;;;;5091685;28;20453;-71
2023/03/11 09:55:31;;;;;;;14.93;13.90;;;3.40;99.90;;;;;;5088020;28;20567;-71
2023/03/11 09:58:01;;;;;;;17.23;15.60;;;3.50;99.90;;;;;;5083507;28;20841;-72
2023/03/11 10:00:28;;;;;;;14.83;13.90;;;3.60;99.90;;;;;;5086188;28;20501;-72
2023/03/11 10:02:56;;;;;;;16.23;14.97;;;3.60;99.90;;;;;;5089414;28;20460;-71
2023/03/11 10:05:26;;;;;;;15.37;14.30;;;3.90;99.90;;;;;;5088905;28;20457;-70
2023/03/11 10:08:00;;;;;;;15.20;14.37;;;4.70;99.90;;;;;;5093330;28;20466;-71
2023/03/11 10:10:32;;;;;;;16.40;15.30;;;5.70;99.90;;;;;;5090635;28;20504;-70
2023/03/11 10:13:06;;;;;;;15.83;14.73;;;6.50;99.90;;;;;;5085531;28;20462;-71
2023/03/11 10:15:42;;;;;;;15.13;14.30;;;7.50;99.90;;;;;;5091138;28;20722;-70
2023/03/11 10:18:32;;;;;;;15.50;14.70;;;7.70;99.90;;;;;;5088087;28;20479;-70
2023/03/11 10:21:04;;;;;;;16.43;15.10;;;7.40;99.90;;;;;;5087132;28;20519;-71
2023/03/11 10:23:47;;;;;;;18.23;16.70;;;7.20;99.90;;;;;;5087167;28;20472;-71
2023/03/11 10:26:19;;;;;;;16.57;15.23;;;7.00;99.90;;;;;;5101038;28;20457;-72
2023/03/11 10:28:48;;;;;;;16.33;15.17;;;7.20;99.90;;;;;;5089419;28;20488;-70
2023/03/11 10:31:21;;;;;;;16.10;14.80;;;7.40;99.90;;;;;;5086841;28;20453;-71
2023/03/11 10:33:52;;;;;;;15.83;14.83;;;7.00;99.90;;;;;;5085834;28;21141;-70
2023/03/11 10:36:26;;;;;;;15.93;14.90;;;6.10;99.90;;;;;;5089037;28;20485;-70
2023/03/11 10:38:55;;;;;;;16.13;15.10;;;6.30;99.90;;;;;;5085410;28;20461;-71
2023/03/11 10:41:28;;;;;;;16.50;15.30;;;6.50;99.90;;;;;;5086963;28;20469;-71
2023/03/11 10:44:00;;;;;;;15.37;14.47;;;7.10;99.90;;;;;;5082900;28;20462;-70
2023/03/11 10:46:28;;;;;;;16.43;15.27;;;7.10;99.90;;;;;;5086324;28;20465;-71
2023/03/11 10:48:56;;;;;;;16.30;15.30;;;6.70;99.90;;;;;;5086790;28;20467;-71
2023/03/11 10:51:26;;;;;;;15.80;14.90;;;6.40;99.90;;;;;;5083987;28;20492;-70
2023/03/11 10:53:56;;;;;;;16.03;14.90;;;6.40;99.90;;;;;;5088545;28;20453;-71
2023/03/11 10:56:31;;;;;;;16.10;15.10;;;6.50;99.90;;;;;;5085443;28;20499;-71
2023/03/11 10:58:58;;;;;;;16.00;15.00;;;6.40;99.90;;;;;;5086973;28;20802;-70
2023/03/11 11:01:27;;;;;;;16.30;15.20;;;6.20;99.90;;;;;;5090672;28;20518;-71
2023/03/11 11:03:56;;;;;;;16.00;15.00;;;6.30;99.90;;;;;;5086525;28;20552;-71
2023/03/11 11:06:27;;;;;;;15.80;14.73;;;6.50;99.90;;;;;;5088077;28;20507;-71
2023/03/11 11:09:19;;;;;;;15.93;15.00;;;6.50;99.90;;;;;;5085877;28;20457;-71
2023/03/11 11:12:02;;;;;;;16.37;15.00;;;6.50;99.90;;;;;;5089827;28;20994;-71
2023/03/11 11:14:43;;;;;;;15.70;14.77;;;6.30;99.90;;;;;;5086112;28;21745;-71
2023/03/11 11:17:23;;;;;;;15.27;14.47;;;6.50;99.90;;;;;;5085201;28;20452;-70
2023/03/11 11:19:51;;;;;;;15.70;14.70;;;6.80;99.90;;;;;;5088192;28;20502;-71
2023/03/11 11:22:20;;;;;;;15.67;14.77;;;6.90;99.90;;;;;;5088963;28;21001;-70
2023/03/11 11:24:50;;;;;;;16.27;15.27;;;6.70;99.90;;;;;;5087261;28;20462;-70
2023/03/11 11:27:19;;;;;;;15.43;14.63;;;6.70;99.00;;;;;;5086182;28;20458;-71
2023/03/11 11:29:47;;;;;;;16.23;15.13;;;6.50;99.00;;;;;;5087191;28;20466;-71
2023/03/11 11:32:20;;;;;;;15.67;14.97;;;6.20;99.10;;;;;;5090524;28;20455;-71
2023/03/11 11:34:58;;;;;;;15.33;14.53;;;6.70;99.90;;;;;;5088327;28;20825;-71
2023/03/11 11:37:30;;;;;;;15.50;14.70;;;7.90;99.90;;;;;;5095582;28;20488;-70
2023/03/11 11:40:06;;;;;;;16.30;15.13;;;8.50;98.20;;;;;;5087528;28;20531;-71
2023/03/11 11:42:33;;;;;;;15.97;15.07;;;8.40;96.80;;;;;;5084732;28;20484;-69
2023/03/11 11:45:06;;;;;;;15.47;14.40;;;8.10;96.90;;;;;;5088665;28;20584;-71
2023/03/11 11:47:35;;;;;;;15.73;14.87;;;8.50;98.20;;;;;;5087676;28;20469;-70
2023/03/11 11:50:07;;;;;;;16.13;14.60;;;9.30;97.00;;;;;;5088112;28;20465;-70
2023/03/11 11:52:40;;;;;;;16.37;15.13;;;9.50;95.50;;;;;;5087303;28;20996;-70
2023/03/11 11:55:19;;;;;;;16.07;15.00;;;9.90;94.60;;;;;;5090635;28;20477;-70
2023/03/11 11:57:47;;;;;;;16.37;15.37;;;9.60;92.00;;;;;;5091780;28;20488;-70
2023/03/11 12:00:19;;;;;;;16.30;15.20;;;9.30;90.50;;;;;;5089385;28;20561;-71
2023/03/11 12:02:59;;;;;;;16.33;15.40;;;9.60;92.60;;;;;;5075214;28;20473;-71
2023/03/11 12:05:30;;;;;;;17.00;15.83;;;9.40;91.20;;;;;;5085654;28;20497;-70
2023/03/11 12:08:09;;;;;;;16.33;15.40;;;9.40;93.40;;;;;;5090059;28;21037;-71
2023/03/11 12:10:43;;;;;;;16.77;15.70;;;9.20;91.30;;;;;;5096075;28;21088;-70
2023/03/11 12:13:47;;;;;;;17.10;16.00;;;8.70;90.70;;;;;;5096154;28;20464;-71
2023/03/11 12:16:25;;;;;;;17.70;16.60;;;8.20;90.00;;;;;;5087808;28;20491;-70
2023/03/11 12:18:56;;;;;;;17.30;16.10;;;8.10;93.00;;;;;;5092893;28;20848;-70
2023/03/11 12:21:40;;;;;;;16.80;15.77;;;8.60;92.40;;;;;;5091302;28;20481;-70
2023/03/11 12:24:28;;;;;;;16.43;15.43;;;8.50;90.70;;;;;;5089701;28;20506;-71
2023/03/11 12:27:01;;;;;;;17.40;16.20;;;8.60;90.40;;;;;;5090356;28;21049;-71
2023/03/11 12:29:33;;;;;;;17.37;16.17;;;8.80;90.20;;;;;;5094080;28;20462;-71
2023/03/11 12:32:03;;;;;;;17.10;16.10;;;8.90;90.80;;;;;;5092374;28;20527;-71
2023/03/11 12:34:34;;;;;;;16.60;15.70;;;9.10;90.00;;;;;;5088930;28;20461;-69
2023/03/11 12:37:02;;;;;;;17.57;16.20;;;9.00;88.00;;;;;;5092843;28;20572;-71
2023/03/11 12:39:31;;;;;;;16.50;15.50;;;8.90;89.40;;;;;;5091625;28;20461;-71
2023/03/11 12:42:19;;;;;;;17.30;16.20;;;9.20;90.00;;;;;;5095780;28;20504;-70
2023/03/11 12:44:48;;;;;;;17.43;16.43;;;9.20;89.70;;;;;;5093976;28;20918;-70
2023/03/11 12:47:21;;;;;;;16.93;16.03;;;9.60;85.20;;;;;;5092342;28;20955;-71
2023/03/11 12:49:50;;;;;;;17.90;16.80;;;9.40;86.50;;;;;;5092605;28;20469;-71
2023/03/11 12:52:51;;;;;;;16.90;15.90;;;9.70;84.20;;;;;;5088560;28;20539;-71